createdAt,value
2018-01-07T00:02:14.031Z,42.33
2018-01-07T00:04:41.478Z,40.30
2018-01-07T00:07:09.033Z,44.47
2018-01-07T00:09:36.508Z,46.60
2018-01-07T00:12:04.722Z,53.37
2018-01-07T00:14:32.169Z,54.33
2018-01-07T00:16:59.630Z,42.33
2018-01-07T00:19:27.069Z,47.73
2018-01-07T00:21:55.293Z,56.80
2018-01-07T00:24:22.749Z,54.97
2018-01-07T00:26:50.206Z,48.00
2018-01-07T00:29:18.439Z,36.30
2018-01-07T00:31:45.888Z,37.43
2018-01-07T00:34:13.351Z,29.67
2018-01-07T00:36:41.557Z,30.13
2018-01-07T00:39:08.975Z,31.37
2018-01-07T00:41:36.437Z,35.33
2018-01-07T00:44:03.897Z,27.00
2018-01-07T00:46:31.346Z,30.53
2018-01-07T00:48:58.800Z,34.73
2018-01-07T00:51:26.262Z,30.03
2018-01-07T00:53:53.676Z,29.20
2018-01-07T00:56:21.150Z,25.37
2018-01-07T00:58:49.365Z,26.23
2018-01-07T01:01:16.775Z,31.03
2018-01-07T01:03:44.233Z,34.50
2018-01-07T01:06:11.680Z,38.77
2018-01-07T01:08:39.081Z,37.10
2018-01-07T01:11:07.434Z,35.53
2018-01-07T01:13:35.616Z,37.23
2018-01-07T01:16:03.039Z,35.17
2018-01-07T01:18:31.227Z,39.00
2018-01-07T01:20:58.648Z,41.03
2018-01-07T01:23:26.075Z,36.60
2018-01-07T01:25:54.263Z,34.37
2018-01-07T01:28:21.687Z,36.90
2018-01-07T01:30:49.116Z,41.73
2018-01-07T01:33:17.312Z,42.77
2018-01-07T01:35:44.744Z,33.53
2018-01-07T01:38:12.151Z,32.90
2018-01-07T01:40:40.357Z,32.90
2018-01-07T01:43:07.775Z,33.23
2018-01-07T01:45:35.195Z,34.83
2018-01-07T01:48:03.380Z,35.97
2018-01-07T01:50:30.814Z,38.37
2018-01-07T01:52:58.997Z,39.90
2018-01-07T01:55:26.416Z,35.30
2018-01-07T01:57:53.836Z,32.67
2018-01-07T02:00:21.255Z,35.90
2018-01-07T02:02:48.679Z,37.67
2018-01-07T02:05:16.110Z,40.00
2018-01-07T02:07:43.595Z,42.23
2018-01-07T02:10:10.947Z,44.60
2018-01-07T02:12:39.166Z,36.07
2018-01-07T02:15:06.589Z,31.30
2018-01-07T02:17:34.032Z,37.90
2018-01-07T02:20:01.464Z,34.90
2018-01-07T02:22:28.887Z,41.80
2018-01-07T02:24:56.311Z,34.70
2018-01-07T02:27:24.516Z,37.13
2018-01-07T02:29:51.946Z,45.07
2018-01-07T02:32:19.370Z,41.30
2018-01-07T02:34:47.556Z,39.87
2018-01-07T02:37:14.981Z,43.57
2018-01-07T02:39:42.400Z,51.07
2018-01-07T02:42:10.608Z,48.63
2018-01-07T02:44:38.028Z,37.97
2018-01-07T02:47:05.452Z,33.57
2018-01-07T02:49:33.672Z,35.27
2018-01-07T02:52:01.093Z,30.57
2018-01-07T02:54:28.511Z,31.20
2018-01-07T02:56:55.948Z,31.57
2018-01-07T02:59:23.377Z,41.93
2018-01-07T03:01:51.563Z,41.60
2018-01-07T03:04:19.003Z,47.57
2018-01-07T03:06:46.447Z,36.93
2018-01-07T03:09:13.891Z,38.50
2018-01-07T03:11:41.330Z,42.87
2018-01-07T03:14:08.756Z,39.60
2018-01-07T03:16:36.176Z,37.50
2018-01-07T03:19:04.376Z,37.73
2018-01-07T03:21:31.804Z,42.43
2018-01-07T03:23:59.244Z,41.03
2018-01-07T03:26:26.667Z,47.67
2018-01-07T03:28:54.876Z,53.77
2018-01-07T03:31:22.300Z,56.80
2018-01-07T03:33:49.742Z,66.57
2018-01-07T03:36:17.164Z,71.37
2018-01-07T03:38:44.588Z,73.00
2018-01-07T03:41:12.808Z,71.43
2018-01-07T03:43:40.232Z,66.63
2018-01-07T03:46:07.657Z,58.70
2018-01-07T03:48:35.088Z,71.43
2018-01-07T03:51:02.507Z,78.97
2018-01-07T03:53:30.707Z,60.70
2018-01-07T03:55:58.136Z,77.63
2018-01-07T03:58:25.569Z,75.50
2018-01-07T04:00:52.984Z,77.67
2018-01-07T04:03:21.193Z,67.33
2018-01-07T04:05:48.628Z,59.13
2018-01-07T04:08:16.075Z,52.93
2018-01-07T04:10:43.495Z,51.80
2018-01-07T04:13:10.923Z,58.03
2018-01-07T04:15:38.352Z,51.63
2018-01-07T04:18:06.548Z,60.27
2018-01-07T04:20:33.980Z,55.43
2018-01-07T04:23:01.400Z,43.93
2018-01-07T04:25:29.591Z,46.93
2018-01-07T04:27:57.021Z,45.30
2018-01-07T04:30:24.496Z,52.53
2018-01-07T04:32:51.928Z,58.23
2018-01-07T04:35:19.359Z,56.87
2018-01-07T04:37:46.788Z,63.00
2018-01-07T04:40:14.208Z,81.20
2018-01-07T04:42:42.405Z,69.40
2018-01-07T04:45:09.828Z,64.80
2018-01-07T04:47:37.247Z,63.60
2018-01-07T04:50:05.444Z,48.43
2018-01-07T04:52:32.870Z,53.77
2018-01-07T04:55:00.301Z,42.40
2018-01-07T04:57:28.483Z,36.73
2018-01-07T04:59:55.906Z,41.33
2018-01-07T05:02:23.328Z,38.57
2018-01-07T05:04:51.515Z,36.67
2018-01-07T05:07:18.935Z,37.17
2018-01-07T05:09:47.135Z,35.93
2018-01-07T05:12:14.563Z,38.17
2018-01-07T05:14:41.992Z,50.07
2018-01-07T05:17:09.427Z,50.43
2018-01-07T05:19:37.627Z,55.83
2018-01-07T05:22:05.055Z,64.33
2018-01-07T05:24:32.481Z,51.60
2018-01-07T05:26:59.903Z,47.50
2018-01-07T05:29:28.112Z,46.23
2018-01-07T05:31:55.540Z,51.60
2018-01-07T05:34:22.955Z,47.50
2018-01-07T05:36:50.390Z,44.70
2018-01-07T05:39:18.576Z,42.47
2018-01-07T05:41:46.040Z,45.17
2018-01-07T05:44:13.464Z,46.27
2018-01-07T05:46:40.891Z,40.60
2018-01-07T05:49:08.314Z,39.13
2018-01-07T05:51:35.754Z,44.70
2018-01-07T05:54:03.944Z,42.93
2018-01-07T05:56:31.376Z,35.27
2018-01-07T05:58:58.803Z,35.67
2018-01-07T06:01:26.228Z,31.17
2018-01-07T06:03:54.420Z,30.73
2018-01-07T06:06:21.848Z,30.47
2018-01-07T06:08:49.268Z,29.43
2018-01-07T06:11:17.460Z,26.87
2018-01-07T06:13:44.888Z,29.20
2018-01-07T06:16:12.307Z,26.90
2018-01-07T06:18:40.495Z,31.47
2018-01-07T06:21:07.920Z,39.33
2018-01-07T06:23:36.112Z,46.33
2018-01-07T06:26:03.535Z,51.37
2018-01-07T06:28:30.968Z,55.13
2018-01-07T06:30:58.395Z,51.63
2018-01-07T06:33:26.589Z,51.50
2018-01-07T06:35:54.012Z,50.97
2018-01-07T06:38:21.436Z,46.40
2018-01-07T06:40:49.627Z,37.97
2018-01-07T06:43:17.057Z,35.80
2018-01-07T06:45:44.475Z,35.70
2018-01-07T06:48:12.663Z,37.33
2018-01-07T06:50:40.099Z,35.33
2018-01-07T06:53:07.524Z,34.70
2018-01-07T06:55:35.712Z,32.67
2018-01-07T06:58:03.136Z,32.10
2018-01-07T07:00:30.608Z,30.27
2018-01-07T07:02:58.014Z,28.77
2018-01-07T07:05:26.206Z,28.77
2018-01-07T07:07:53.663Z,27.00
2018-01-07T07:10:21.080Z,26.07
2018-01-07T07:12:48.504Z,27.07
2018-01-07T07:15:15.924Z,29.50
2018-01-07T07:17:44.111Z,34.00
2018-01-07T07:20:11.538Z,32.93
2018-01-07T07:22:39.724Z,32.10
2018-01-07T07:25:07.148Z,29.43
2018-01-07T07:27:34.571Z,26.80
2018-01-07T07:30:02.764Z,26.87
2018-01-07T07:32:30.187Z,27.67
2018-01-07T07:34:57.636Z,26.93
2018-01-07T07:37:25.065Z,25.73
2018-01-07T07:39:53.254Z,22.33
2018-01-07T07:42:20.676Z,23.13
2018-01-07T07:44:48.099Z,22.43
2018-01-07T07:47:16.290Z,22.77
2018-01-07T07:49:43.712Z,22.87
2018-01-07T07:52:11.143Z,24.20
2018-01-07T07:54:39.328Z,21.83
2018-01-07T07:57:06.766Z,24.43
2018-01-07T07:59:34.196Z,24.63
2018-01-07T08:02:01.627Z,29.43
2018-01-07T08:04:29.859Z,31.23
2018-01-07T08:06:57.235Z,30.27
2018-01-07T08:09:24.664Z,32.87
2018-01-07T08:11:52.851Z,29.37
2018-01-07T08:14:20.272Z,29.20
2018-01-07T08:16:48.466Z,28.57
2018-01-07T08:19:15.890Z,27.63
2018-01-07T08:21:43.311Z,27.50
2018-01-07T08:24:11.500Z,30.30
2018-01-07T08:26:39.060Z,29.57
2018-01-07T08:29:06.484Z,29.87
2018-01-07T08:31:33.922Z,31.30
2018-01-07T08:34:01.339Z,34.23
2018-01-07T08:36:29.532Z,34.47
2018-01-07T08:38:56.960Z,30.53
2018-01-07T08:41:24.383Z,31.73
2018-01-07T08:43:52.568Z,29.70
2018-01-07T08:46:20.004Z,32.60
2018-01-07T08:48:47.427Z,32.13
2018-01-07T08:51:14.933Z,31.63
2018-01-07T08:53:42.362Z,33.73
2018-01-07T08:56:09.784Z,34.53
2018-01-07T08:58:37.208Z,33.37
2018-01-07T09:01:04.644Z,33.07
2018-01-07T09:03:32.056Z,32.30
2018-01-07T09:06:00.288Z,32.50
2018-01-07T09:08:27.718Z,33.07
2018-01-07T09:10:55.135Z,31.83
2018-01-07T09:13:22.555Z,33.47
2018-01-07T09:15:50.748Z,29.50
2018-01-07T09:18:18.175Z,32.07
2018-01-07T09:20:45.596Z,31.43
2018-01-07T09:23:13.788Z,29.83
2018-01-07T09:25:41.275Z,29.93
2018-01-07T09:28:08.708Z,30.83
2018-01-07T09:30:36.899Z,30.67
2018-01-07T09:33:04.333Z,33.53
2018-01-07T09:35:32.523Z,30.13
2018-01-07T09:37:59.962Z,31.47
2018-01-07T09:40:27.380Z,32.73
2018-01-07T09:42:55.568Z,33.97
2018-01-07T09:45:22.987Z,27.70
2018-01-07T09:47:50.408Z,27.83
2018-01-07T09:50:17.831Z,33.60
2018-01-07T09:52:45.252Z,54.63
2018-01-07T09:55:12.683Z,141.03
2018-01-07T09:57:40.114Z,48.80
2018-01-07T10:00:07.536Z,34.00
2018-01-07T10:02:34.962Z,33.37
2018-01-07T10:05:03.156Z,34.47
2018-01-07T10:07:30.580Z,35.07
2018-01-07T10:09:58.284Z,31.43
2018-01-07T10:12:25.699Z,32.83
2018-01-07T10:14:53.120Z,29.33
2018-01-07T10:17:20.547Z,27.83
2018-01-07T10:19:48.735Z,25.97
2018-01-07T10:22:16.155Z,28.20
2018-01-07T10:24:43.580Z,28.47
2018-01-07T10:27:11.770Z,26.23
2018-01-07T10:29:39.240Z,26.10
2018-01-07T10:32:06.673Z,31.97
2018-01-07T10:34:34.096Z,27.40
2018-01-07T10:37:01.519Z,23.27
2018-01-07T10:39:28.940Z,23.17
2018-01-07T10:41:57.136Z,22.90
2018-01-07T10:44:24.562Z,23.20
2018-01-07T10:46:51.983Z,23.63
2018-01-07T10:49:20.168Z,20.53
2018-01-07T10:51:47.588Z,21.13
2018-01-07T10:54:15.775Z,21.30
2018-01-07T10:56:43.195Z,23.47
2018-01-07T10:59:11.388Z,23.97
2018-01-07T11:01:44.559Z,22.57
2018-01-07T11:04:12.020Z,24.60
2018-01-07T11:06:39.440Z,41.73
2018-01-07T11:09:06.868Z,26.60
2018-01-07T11:11:34.644Z,22.07
2018-01-07T11:14:02.060Z,20.30
2018-01-07T11:16:29.527Z,20.97
2018-01-07T11:18:56.947Z,18.97
2018-01-07T11:21:24.388Z,21.03
2018-01-07T11:23:51.803Z,21.30
2018-01-07T11:26:20.016Z,25.63
2018-01-07T11:28:47.436Z,18.80
2018-01-07T11:31:14.868Z,20.80
2018-01-07T11:33:42.315Z,20.63
2018-01-07T11:36:09.732Z,21.23
2018-01-07T11:38:37.944Z,21.20
2018-01-07T11:41:05.367Z,21.43
2018-01-07T11:43:32.792Z,22.90
2018-01-07T11:46:00.228Z,21.80
2018-01-07T11:48:27.648Z,23.07
2018-01-07T11:50:55.841Z,21.27
2018-01-07T11:53:23.452Z,21.23
2018-01-07T11:55:50.745Z,20.40
2018-01-07T11:58:18.165Z,21.10
2018-01-07T12:00:45.583Z,21.27
2018-01-07T12:03:13.775Z,25.77
2018-01-07T12:05:41.206Z,24.87
2018-01-07T12:08:08.630Z,22.13
2018-01-07T12:10:36.811Z,22.93
2018-01-07T12:13:04.284Z,21.83
2018-01-07T12:15:31.731Z,22.57
2018-01-07T12:17:59.150Z,22.03
2018-01-07T12:20:26.575Z,21.73
2018-01-07T12:22:54.046Z,20.73
2018-01-07T12:25:21.465Z,20.93
2018-01-07T12:27:48.880Z,19.13
2018-01-07T12:30:16.350Z,18.80
2018-01-07T12:32:43.808Z,20.67
2018-01-07T12:35:11.212Z,21.63
2018-01-07T12:37:38.632Z,21.17
2018-01-07T12:40:06.819Z,20.40
2018-01-07T12:42:34.248Z,18.57
2018-01-07T12:45:02.432Z,19.60
2018-01-07T12:47:29.866Z,18.73
2018-01-07T12:49:57.296Z,63.03
2018-01-07T12:52:24.716Z,26.97
2018-01-07T12:54:52.895Z,36.47
2018-01-07T12:57:20.330Z,34.67
2018-01-07T12:59:48.516Z,21.17
2018-01-07T13:02:15.940Z,26.10
2018-01-07T13:04:43.355Z,24.83
2018-01-07T13:07:11.552Z,20.23
2018-01-07T13:09:38.986Z,22.17
2018-01-07T13:12:06.412Z,18.33
2018-01-07T13:14:34.597Z,20.90
2018-01-07T13:17:02.032Z,25.20
2018-01-07T13:19:29.463Z,19.47
2018-01-07T13:21:56.892Z,22.63
2018-01-07T13:24:25.392Z,17.53
2018-01-07T13:26:52.807Z,19.00
2018-01-07T13:29:20.291Z,16.47
2018-01-07T13:31:47.825Z,19.07
2018-01-07T13:34:15.256Z,16.17
2018-01-07T13:36:42.684Z,16.70
2018-01-07T13:39:10.116Z,16.47
2018-01-07T13:41:37.589Z,16.80
2018-01-07T13:44:05.040Z,15.97
2018-01-07T13:46:32.497Z,17.37
2018-01-07T13:48:59.912Z,19.47
2018-01-07T13:51:27.334Z,15.13
2018-01-07T13:53:54.827Z,15.27
2018-01-07T13:56:22.248Z,15.47
2018-01-07T13:58:49.663Z,17.67
2018-01-07T14:01:17.087Z,17.20
2018-01-07T14:03:45.290Z,16.03
2018-01-07T14:06:12.755Z,15.37
2018-01-07T14:08:40.172Z,15.50
2018-01-07T14:11:07.634Z,18.20
2018-01-07T14:13:35.068Z,14.37
2018-01-07T14:16:02.538Z,16.47
2018-01-07T14:18:29.960Z,16.30
2018-01-07T14:20:57.480Z,15.17
2018-01-07T14:23:24.950Z,15.83
2018-01-07T14:25:52.355Z,17.87
2018-01-07T14:28:19.833Z,17.47
2018-01-07T14:30:47.289Z,17.10
2018-01-07T14:33:14.694Z,16.00
2018-01-07T14:35:42.158Z,15.60
2018-01-07T14:38:09.605Z,17.03
2018-01-07T14:40:37.123Z,20.40
2018-01-07T14:43:04.560Z,18.90
2018-01-07T14:45:31.988Z,20.63
2018-01-07T14:47:59.442Z,16.60
2018-01-07T14:50:26.860Z,17.73
2018-01-07T14:52:54.292Z,17.30
2018-01-07T14:55:21.721Z,17.77
2018-01-07T14:57:49.954Z,18.27
2018-01-07T15:00:17.372Z,15.80
2018-01-07T15:02:44.784Z,19.00
2018-01-07T15:05:12.263Z,18.90
2018-01-07T15:07:39.679Z,18.07
2018-01-07T15:10:07.120Z,18.03
2018-01-07T15:12:34.595Z,17.97
2018-01-07T15:15:02.037Z,18.10
2018-01-07T15:17:29.458Z,17.70
2018-01-07T15:19:56.880Z,18.47
2018-01-07T15:22:24.359Z,17.87
2018-01-07T15:24:51.771Z,18.53
2018-01-07T15:27:19.232Z,18.93
2018-01-07T15:29:46.717Z,18.47
2018-01-07T15:32:14.116Z,18.30
2018-01-07T15:34:41.597Z,18.37
2018-01-07T15:37:09.768Z,19.63
2018-01-07T15:39:37.210Z,19.23
2018-01-07T15:42:05.399Z,20.67
2018-01-07T15:44:32.862Z,20.33
2018-01-07T15:47:00.327Z,20.30
2018-01-07T15:49:27.787Z,19.40
2018-01-07T15:51:55.199Z,19.13
2018-01-07T15:54:22.661Z,19.83
2018-01-07T15:56:50.944Z,19.23
2018-01-07T15:59:18.327Z,18.40
2018-01-07T16:01:45.748Z,17.30
2018-01-07T16:04:13.254Z,17.23
2018-01-07T16:06:40.678Z,26.97
2018-01-07T16:09:08.096Z,20.40
2018-01-07T16:11:35.532Z,19.93
2018-01-07T16:14:03.000Z,19.23
2018-01-07T16:16:30.464Z,19.93
2018-01-07T16:18:57.918Z,20.47
2018-01-07T16:21:26.100Z,21.37
2018-01-07T16:23:53.614Z,20.40
2018-01-07T16:26:21.065Z,23.27
2018-01-07T16:28:49.303Z,20.33
2018-01-07T16:31:18.258Z,20.63
2018-01-07T16:33:45.719Z,20.00
2018-01-07T16:36:13.170Z,19.87
2018-01-07T16:38:40.584Z,17.83
2018-01-07T16:41:08.020Z,15.03
2018-01-07T16:43:35.517Z,24.50
2018-01-07T16:46:02.953Z,33.40
2018-01-07T16:48:31.195Z,19.90
2018-01-07T16:50:58.640Z,13.20
2018-01-07T16:53:26.862Z,11.37
2018-01-07T16:55:54.288Z,12.80
2018-01-07T16:58:21.799Z,13.93
2018-01-07T17:00:49.977Z,13.27
2018-01-07T17:03:17.452Z,10.97
2018-01-07T17:05:44.902Z,10.60
2018-01-07T17:08:12.368Z,10.13
2018-01-07T17:10:39.829Z,9.53
2018-01-07T17:13:08.050Z,10.00
2018-01-07T17:15:35.520Z,11.07
2018-01-07T17:18:03.684Z,9.07
2018-01-07T17:20:31.116Z,9.93
2018-01-07T17:22:59.378Z,10.43
2018-01-07T17:25:26.839Z,10.60
2018-01-07T17:27:55.066Z,7.80
2018-01-07T17:30:22.525Z,7.87
2018-01-07T17:32:49.971Z,8.10
2018-01-07T17:35:18.203Z,10.03
2018-01-07T17:37:45.660Z,7.97
2018-01-07T17:40:13.110Z,8.30
2018-01-07T17:42:41.329Z,8.47
2018-01-07T17:45:08.787Z,8.43
2018-01-07T17:47:36.250Z,9.43
2018-01-07T17:50:03.716Z,8.87
2018-01-07T17:52:31.969Z,7.23
2018-01-07T17:55:00.199Z,8.00
2018-01-07T17:57:27.672Z,7.63
2018-01-07T17:59:55.891Z,8.63
2018-01-07T18:02:23.339Z,9.23
2018-01-07T18:04:50.802Z,10.97
2018-01-07T18:07:19.018Z,7.90
2018-01-07T18:09:46.477Z,8.87
2018-01-07T18:12:13.935Z,8.60
2018-01-07T18:14:41.483Z,7.73
2018-01-07T18:17:08.931Z,7.70
2018-01-07T18:19:37.167Z,9.47
2018-01-07T18:22:04.614Z,8.50
2018-01-07T18:24:32.066Z,8.47
2018-01-07T18:26:59.555Z,9.80
2018-01-07T18:29:27.011Z,8.83
2018-01-07T18:31:54.471Z,9.87
2018-01-07T18:34:21.967Z,10.03
2018-01-07T18:36:50.194Z,9.50
2018-01-07T18:39:17.659Z,9.93
2018-01-07T18:41:45.878Z,9.30
2018-01-07T18:44:13.350Z,8.70
2018-01-07T18:46:40.807Z,12.23
2018-01-07T18:49:09.050Z,9.20
2018-01-07T18:51:37.278Z,9.33
2018-01-07T18:54:04.735Z,10.73
2018-01-07T18:56:32.190Z,10.10
2018-01-07T18:58:59.747Z,10.20
2018-01-07T19:01:27.983Z,15.47
2018-01-07T19:03:55.454Z,11.13
2018-01-07T19:06:23.691Z,10.47
2018-01-07T19:08:51.155Z,9.10
2018-01-07T19:11:19.702Z,9.73
2018-01-07T19:13:47.254Z,10.73
2018-01-07T19:16:14.751Z,9.30
2018-01-07T19:18:42.204Z,10.47
2018-01-07T19:21:09.673Z,11.30
2018-01-07T19:23:37.131Z,11.40
2018-01-07T19:26:05.375Z,11.40
2018-01-07T19:28:32.831Z,11.23
2018-01-07T19:31:01.142Z,10.67
2018-01-07T19:33:28.601Z,11.33
2018-01-07T19:35:56.061Z,10.30
2018-01-07T19:38:23.535Z,12.03
2018-01-07T19:40:51.759Z,13.47
2018-01-07T19:43:19.979Z,11.57
2018-01-07T19:45:47.447Z,11.50
2018-01-07T19:48:14.912Z,12.77
2018-01-07T19:50:42.378Z,11.80
2018-01-07T19:53:10.598Z,12.97
2018-01-07T19:55:38.053Z,12.50
2018-01-07T19:58:06.283Z,11.50
2018-01-07T20:00:33.751Z,11.17
2018-01-07T20:03:01.202Z,10.90
2018-01-07T20:05:28.763Z,13.37
2018-01-07T20:07:56.223Z,13.43
2018-01-07T20:10:23.847Z,14.67
2018-01-07T20:12:52.066Z,10.27
2018-01-07T20:15:19.551Z,11.30
2018-01-07T20:17:47.827Z,11.37
2018-01-07T20:20:15.259Z,10.57
2018-01-07T20:22:43.482Z,10.37
2018-01-07T20:25:10.938Z,10.37
2018-01-07T20:27:38.570Z,9.87
2018-01-07T20:30:06.026Z,10.47
2018-01-07T20:32:33.503Z,12.03
2018-01-07T20:35:00.963Z,13.47
2018-01-07T20:37:28.434Z,9.63
2018-01-07T20:39:55.895Z,10.33
2018-01-07T20:42:23.355Z,9.53
2018-01-07T20:44:51.583Z,10.27
2018-01-07T20:47:19.049Z,12.17
2018-01-07T20:49:46.516Z,10.13
2018-01-07T20:52:13.978Z,10.30
2018-01-07T20:54:41.482Z,9.93
2018-01-07T20:57:09.712Z,10.10
2018-01-07T20:59:37.167Z,11.30
2018-01-07T21:02:05.446Z,10.87
2018-01-07T21:04:33.666Z,10.40
2018-01-07T21:07:01.125Z,9.20
2018-01-07T21:09:28.579Z,9.90
2018-01-07T21:11:56.039Z,10.30
2018-01-07T21:14:24.260Z,9.50
2018-01-07T21:16:51.713Z,9.57
2018-01-07T21:19:19.940Z,10.20
2018-01-07T21:21:47.395Z,9.27
2018-01-07T21:24:14.853Z,10.40
2018-01-07T21:26:43.079Z,9.90
2018-01-07T21:29:10.570Z,9.87
2018-01-07T21:31:38.043Z,10.43
2018-01-07T21:34:05.527Z,10.20
2018-01-07T21:36:32.992Z,25.20
2018-01-07T21:39:00.450Z,22.97
2018-01-07T21:41:28.674Z,22.33
2018-01-07T21:43:56.147Z,16.97
2018-01-07T21:46:24.361Z,34.53
2018-01-07T21:48:51.867Z,20.97
2018-01-07T21:51:20.106Z,13.63
2018-01-07T21:53:47.576Z,17.37
2018-01-07T21:56:18.883Z,16.67
2018-01-07T21:58:46.371Z,13.60
2018-01-07T22:01:25.819Z,19.57
2018-01-07T22:04:02.075Z,21.60
2018-01-07T22:06:41.343Z,15.53
2018-01-07T22:09:08.827Z,14.23
2018-01-07T22:11:36.287Z,12.17
2018-01-07T22:14:03.754Z,18.20
2018-01-07T22:16:31.979Z,12.60
2018-01-07T22:18:59.445Z,12.90
2018-01-07T22:21:27.702Z,12.37
2018-01-07T22:23:55.167Z,13.83
2018-01-07T22:26:22.632Z,14.03
2018-01-07T22:28:50.185Z,13.70
2018-01-07T22:31:17.629Z,13.53
2018-01-07T22:33:45.085Z,13.27
2018-01-07T22:36:12.554Z,12.93
2018-01-07T22:38:39.993Z,12.00
2018-01-07T22:41:07.453Z,12.33
2018-01-07T22:43:35.678Z,13.53
2018-01-07T22:46:03.154Z,12.13
2018-01-07T22:48:31.366Z,12.27
2018-01-07T22:50:58.827Z,13.00
2018-01-07T22:53:26.291Z,13.50
2018-01-07T22:55:54.518Z,12.17
2018-01-07T22:58:21.986Z,12.67
2018-01-07T23:00:50.220Z,12.73
2018-01-07T23:03:17.688Z,13.47
2018-01-07T23:05:45.151Z,13.20
2018-01-07T23:08:13.374Z,13.90
2018-01-07T23:10:40.951Z,13.07
2018-01-07T23:13:09.169Z,12.70
2018-01-07T23:15:36.642Z,12.90
2018-01-07T23:18:04.145Z,13.20
2018-01-07T23:20:32.313Z,14.20
2018-01-07T23:22:59.791Z,14.87
2018-01-07T23:25:27.230Z,13.67
2018-01-07T23:27:55.458Z,13.77
2018-01-07T23:30:22.909Z,13.93
2018-01-07T23:32:50.331Z,14.07
2018-01-07T23:35:17.759Z,14.37
2018-01-07T23:37:45.213Z,14.00
2018-01-07T23:40:12.624Z,14.20
2018-01-07T23:42:40.090Z,13.53
2018-01-07T23:45:07.537Z,14.13
2018-01-07T23:47:34.947Z,14.47
2018-01-07T23:50:02.427Z,13.37
2018-01-07T23:52:29.881Z,13.60
2018-01-07T23:54:57.344Z,14.90
2018-01-07T23:57:25.557Z,14.93
2018-01-07T23:59:52.984Z,15.50
